sensor_id;sensor_type;location;lat;lon;timestamp;P1;durP1;ratioP1;P2;durP2;ratioP2
12986;SDS011;58897;51.960;5.582;2023-01-23T00:00:09;12.20;;;7.10;;
12986;SDS011;58897;51.960;5.582;2023-01-23T00:02:39;15.63;;;6.43;;
12986;SDS011;58897;51.960;5.582;2023-01-23T00:05:06;12.53;;;6.70;;
12986;SDS011;58897;51.960;5.582;2023-01-23T00:07:32;11.80;;;7.00;;
12986;SDS011;58897;51.960;5.582;2023-01-23T00:09:59;11.43;;;6.80;;
12986;SDS011;58897;51.960;5.582;2023-01-23T00:12:25;14.00;;;6.83;;
12986;SDS011;58897;51.960;5.582;2023-01-23T00:14:52;14.17;;;7.43;;
12986;SDS011;58897;51.960;5.582;2023-01-23T00:17:18;12.80;;;7.10;;
12986;SDS011;58897;51.960;5.582;2023-01-23T00:19:44;11.00;;;6.70;;
12986;SDS011;58897;51.960;5.582;2023-01-23T00:22:11;13.27;;;6.77;;
12986;SDS011;58897;51.960;5.582;2023-01-23T00:24:40;9.53;;;6.17;;
12986;SDS011;58897;51.960;5.582;2023-01-23T00:27:06;11.90;;;7.80;;
12986;SDS011;58897;51.960;5.582;2023-01-23T00:29:33;10.40;;;6.23;;
12986;SDS011;58897;51.960;5.582;2023-01-23T00:31:59;9.53;;;6.03;;
12986;SDS011;58897;51.960;5.582;2023-01-23T00:34:26;11.97;;;7.07;;
12986;SDS011;58897;51.960;5.582;2023-01-23T00:36:52;12.43;;;7.47;;
12986;SDS011;58897;51.960;5.582;2023-01-23T00:39:20;11.47;;;6.63;;
12986;SDS011;58897;51.960;5.582;2023-01-23T00:41:47;12.13;;;6.83;;
12986;SDS011;58897;51.960;5.582;2023-01-23T00:44:15;11.33;;;6.60;;
12986;SDS011;58897;51.960;5.582;2023-01-23T00:46:42;12.27;;;6.60;;
12986;SDS011;58897;51.960;5.582;2023-01-23T00:49:08;11.27;;;6.60;;
12986;SDS011;58897;51.960;5.582;2023-01-23T00:51:35;15.93;;;6.40;;
12986;SDS011;58897;51.960;5.582;2023-01-23T00:54:01;12.80;;;6.50;;
12986;SDS011;58897;51.960;5.582;2023-01-23T00:56:28;12.30;;;6.57;;
12986;SDS011;58897;51.960;5.582;2023-01-23T00:58:55;11.07;;;6.60;;
12986;SDS011;58897;51.960;5.582;2023-01-23T01:01:21;10.60;;;6.93;;
12986;SDS011;58897;51.960;5.582;2023-01-23T01:03:48;13.70;;;6.20;;
12986;SDS011;58897;51.960;5.582;2023-01-23T01:06:15;11.40;;;6.13;;
12986;SDS011;58897;51.960;5.582;2023-01-23T01:08:42;11.87;;;6.67;;
12986;SDS011;58897;51.960;5.582;2023-01-23T01:11:08;11.90;;;6.50;;
12986;SDS011;58897;51.960;5.582;2023-01-23T01:13:35;12.50;;;6.37;;
12986;SDS011;58897;51.960;5.582;2023-01-23T01:16:01;10.67;;;6.03;;
12986;SDS011;58897;51.960;5.582;2023-01-23T01:18:28;10.37;;;6.33;;
12986;SDS011;58897;51.960;5.582;2023-01-23T01:20:55;12.80;;;6.77;;
12986;SDS011;58897;51.960;5.582;2023-01-23T01:23:22;15.70;;;7.70;;
12986;SDS011;58897;51.960;5.582;2023-01-23T01:25:49;12.90;;;6.63;;
12986;SDS011;58897;51.960;5.582;2023-01-23T01:28:15;12.07;;;6.23;;
12986;SDS011;58897;51.960;5.582;2023-01-23T01:30:42;14.57;;;6.87;;
12986;SDS011;58897;51.960;5.582;2023-01-23T01:33:09;12.23;;;6.93;;
12986;SDS011;58897;51.960;5.582;2023-01-23T01:35:37;12.87;;;6.83;;
12986;SDS011;58897;51.960;5.582;2023-01-23T01:38:05;12.67;;;6.60;;
12986;SDS011;58897;51.960;5.582;2023-01-23T01:40:34;17.50;;;7.60;;
12986;SDS011;58897;51.960;5.582;2023-01-23T01:43:06;12.27;;;6.80;;
12986;SDS011;58897;51.960;5.582;2023-01-23T01:48:30;14.53;;;7.10;;
12986;SDS011;58897;51.960;5.582;2023-01-23T01:51:27;13.47;;;7.00;;
12986;SDS011;58897;51.960;5.582;2023-01-23T01:56:29;12.03;;;6.97;;
12986;SDS011;58897;51.960;5.582;2023-01-23T01:58:59;12.60;;;6.37;;
12986;SDS011;58897;51.960;5.582;2023-01-23T02:01:27;14.63;;;6.70;;
12986;SDS011;58897;51.960;5.582;2023-01-23T02:03:53;15.23;;;7.40;;
12986;SDS011;58897;51.960;5.582;2023-01-23T02:06:20;13.17;;;6.77;;
12986;SDS011;58897;51.960;5.582;2023-01-23T02:11:28;14.67;;;6.60;;
12986;SDS011;58897;51.960;5.582;2023-01-23T02:13:55;10.80;;;6.33;;
12986;SDS011;58897;51.960;5.582;2023-01-23T02:16:24;12.37;;;7.80;;
12986;SDS011;58897;51.960;5.582;2023-01-23T02:18:56;13.33;;;7.23;;
12986;SDS011;58897;51.960;5.582;2023-01-23T02:21:26;13.30;;;6.87;;
12986;SDS011;58897;51.960;5.582;2023-01-23T02:24:04;13.17;;;7.90;;
12986;SDS011;58897;51.960;5.582;2023-01-23T02:26:43;12.17;;;6.40;;
12986;SDS011;58897;51.960;5.582;2023-01-23T02:29:11;13.00;;;6.63;;
12986;SDS011;58897;51.960;5.582;2023-01-23T02:31:38;11.80;;;6.90;;
12986;SDS011;58897;51.960;5.582;2023-01-23T02:34:09;14.17;;;6.93;;
12986;SDS011;58897;51.960;5.582;2023-01-23T02:36:37;11.53;;;6.20;;
12986;SDS011;58897;51.960;5.582;2023-01-23T02:39:17;13.07;;;6.90;;
12986;SDS011;58897;51.960;5.582;2023-01-23T02:41:46;12.87;;;6.57;;
12986;SDS011;58897;51.960;5.582;2023-01-23T02:46:50;12.97;;;7.00;;
12986;SDS011;58897;51.960;5.582;2023-01-23T02:49:17;15.07;;;7.37;;
12986;SDS011;58897;51.960;5.582;2023-01-23T02:51:43;17.73;;;7.70;;
12986;SDS011;58897;51.960;5.582;2023-01-23T02:54:10;13.17;;;6.83;;
12986;SDS011;58897;51.960;5.582;2023-01-23T02:56:36;15.27;;;7.83;;
12986;SDS011;58897;51.960;5.582;2023-01-23T02:59:03;13.03;;;7.10;;
12986;SDS011;58897;51.960;5.582;2023-01-23T03:01:48;12.63;;;7.47;;
12986;SDS011;58897;51.960;5.582;2023-01-23T03:04:15;11.87;;;6.10;;
12986;SDS011;58897;51.960;5.582;2023-01-23T03:06:41;10.40;;;6.50;;
12986;SDS011;58897;51.960;5.582;2023-01-23T03:09:09;12.53;;;6.57;;
12986;SDS011;58897;51.960;5.582;2023-01-23T03:11:38;11.80;;;6.23;;
12986;SDS011;58897;51.960;5.582;2023-01-23T03:14:07;13.87;;;7.17;;
12986;SDS011;58897;51.960;5.582;2023-01-23T03:16:35;10.63;;;6.47;;
12986;SDS011;58897;51.960;5.582;2023-01-23T03:19:04;10.07;;;6.60;;
12986;SDS011;58897;51.960;5.582;2023-01-23T03:21:35;13.37;;;7.17;;
12986;SDS011;58897;51.960;5.582;2023-01-23T03:24:03;14.50;;;7.27;;
12986;SDS011;58897;51.960;5.582;2023-01-23T03:26:30;12.10;;;7.60;;
12986;SDS011;58897;51.960;5.582;2023-01-23T03:28:57;14.17;;;7.50;;
12986;SDS011;58897;51.960;5.582;2023-01-23T03:31:42;14.03;;;8.20;;
12986;SDS011;58897;51.960;5.582;2023-01-23T03:34:09;14.63;;;8.10;;
12986;SDS011;58897;51.960;5.582;2023-01-23T03:36:35;15.00;;;7.67;;
12986;SDS011;58897;51.960;5.582;2023-01-23T03:39:03;14.73;;;7.13;;
12986;SDS011;58897;51.960;5.582;2023-01-23T03:41:52;15.83;;;7.10;;
12986;SDS011;58897;51.960;5.582;2023-01-23T03:44:19;14.10;;;7.27;;
12986;SDS011;58897;51.960;5.582;2023-01-23T03:46:47;14.20;;;7.37;;
12986;SDS011;58897;51.960;5.582;2023-01-23T03:49:15;14.77;;;8.07;;
12986;SDS011;58897;51.960;5.582;2023-01-23T03:51:41;15.10;;;7.60;;
12986;SDS011;58897;51.960;5.582;2023-01-23T03:54:08;17.93;;;8.80;;
12986;SDS011;58897;51.960;5.582;2023-01-23T03:56:36;13.53;;;7.13;;
12986;SDS011;58897;51.960;5.582;2023-01-23T03:59:03;11.30;;;6.57;;
12986;SDS011;58897;51.960;5.582;2023-01-23T04:01:29;14.03;;;7.10;;
12986;SDS011;58897;51.960;5.582;2023-01-23T04:03:56;17.57;;;7.37;;
12986;SDS011;58897;51.960;5.582;2023-01-23T04:06:22;16.53;;;8.10;;
12986;SDS011;58897;51.960;5.582;2023-01-23T04:08:49;14.50;;;7.90;;
12986;SDS011;58897;51.960;5.582;2023-01-23T04:11:15;16.30;;;8.23;;
12986;SDS011;58897;51.960;5.582;2023-01-23T04:13:42;15.50;;;8.40;;
12986;SDS011;58897;51.960;5.582;2023-01-23T04:16:08;13.47;;;7.43;;
12986;SDS011;58897;51.960;5.582;2023-01-23T04:18:35;13.43;;;7.93;;
12986;SDS011;58897;51.960;5.582;2023-01-23T04:21:01;14.67;;;7.97;;
12986;SDS011;58897;51.960;5.582;2023-01-23T04:23:27;14.73;;;7.67;;
12986;SDS011;58897;51.960;5.582;2023-01-23T04:25:54;15.67;;;7.90;;
12986;SDS011;58897;51.960;5.582;2023-01-23T04:28:21;14.83;;;8.33;;
12986;SDS011;58897;51.960;5.582;2023-01-23T04:30:51;14.20;;;8.13;;
12986;SDS011;58897;51.960;5.582;2023-01-23T04:33:18;16.13;;;7.93;;
12986;SDS011;58897;51.960;5.582;2023-01-23T04:36:04;13.43;;;7.37;;
12986;SDS011;58897;51.960;5.582;2023-01-23T04:38:31;19.40;;;9.57;;
12986;SDS011;58897;51.960;5.582;2023-01-23T04:40:58;14.30;;;7.47;;
12986;SDS011;58897;51.960;5.582;2023-01-23T04:43:25;18.23;;;8.30;;
12986;SDS011;58897;51.960;5.582;2023-01-23T04:45:52;13.90;;;7.93;;
12986;SDS011;58897;51.960;5.582;2023-01-23T04:48:19;17.37;;;8.07;;
12986;SDS011;58897;51.960;5.582;2023-01-23T04:50:46;16.90;;;8.40;;
12986;SDS011;58897;51.960;5.582;2023-01-23T04:53:13;16.97;;;8.40;;
12986;SDS011;58897;51.960;5.582;2023-01-23T04:55:40;14.40;;;7.87;;
12986;SDS011;58897;51.960;5.582;2023-01-23T04:58:06;18.33;;;8.70;;
12986;SDS011;58897;51.960;5.582;2023-01-23T05:00:33;13.97;;;7.47;;
12986;SDS011;58897;51.960;5.582;2023-01-23T05:02:59;15.03;;;7.60;;
12986;SDS011;58897;51.960;5.582;2023-01-23T05:05:27;17.60;;;8.10;;
12986;SDS011;58897;51.960;5.582;2023-01-23T05:07:54;15.57;;;8.20;;
12986;SDS011;58897;51.960;5.582;2023-01-23T05:10:20;18.43;;;9.33;;
12986;SDS011;58897;51.960;5.582;2023-01-23T05:12:48;16.10;;;7.73;;
12986;SDS011;58897;51.960;5.582;2023-01-23T05:15:14;18.20;;;9.13;;
12986;SDS011;58897;51.960;5.582;2023-01-23T05:17:42;15.40;;;8.43;;
12986;SDS011;58897;51.960;5.582;2023-01-23T05:20:09;16.73;;;8.30;;
12986;SDS011;58897;51.960;5.582;2023-01-23T05:22:36;14.53;;;7.67;;
12986;SDS011;58897;51.960;5.582;2023-01-23T05:25:03;14.63;;;8.17;;
12986;SDS011;58897;51.960;5.582;2023-01-23T05:27:30;18.00;;;9.23;;
12986;SDS011;58897;51.960;5.582;2023-01-23T05:29:56;19.13;;;8.27;;
12986;SDS011;58897;51.960;5.582;2023-01-23T05:32:24;14.20;;;7.97;;
12986;SDS011;58897;51.960;5.582;2023-01-23T05:34:50;13.87;;;8.07;;
12986;SDS011;58897;51.960;5.582;2023-01-23T05:37:17;17.73;;;8.73;;
12986;SDS011;58897;51.960;5.582;2023-01-23T05:39:45;13.13;;;7.53;;
12986;SDS011;58897;51.960;5.582;2023-01-23T05:42:12;16.03;;;7.60;;
12986;SDS011;58897;51.960;5.582;2023-01-23T05:44:38;16.00;;;8.43;;
12986;SDS011;58897;51.960;5.582;2023-01-23T05:47:05;14.13;;;7.37;;
12986;SDS011;58897;51.960;5.582;2023-01-23T05:49:31;16.33;;;8.93;;
12986;SDS011;58897;51.960;5.582;2023-01-23T05:51:58;18.03;;;9.23;;
12986;SDS011;58897;51.960;5.582;2023-01-23T05:54:24;17.17;;;8.23;;
12986;SDS011;58897;51.960;5.582;2023-01-23T05:56:50;15.97;;;9.20;;
12986;SDS011;58897;51.960;5.582;2023-01-23T05:59:17;18.20;;;8.73;;
12986;SDS011;58897;51.960;5.582;2023-01-23T06:01:43;17.73;;;9.27;;
12986;SDS011;58897;51.960;5.582;2023-01-23T06:04:10;19.53;;;8.73;;
12986;SDS011;58897;51.960;5.582;2023-01-23T06:06:38;18.30;;;8.40;;
12986;SDS011;58897;51.960;5.582;2023-01-23T06:09:05;19.23;;;8.93;;
12986;SDS011;58897;51.960;5.582;2023-01-23T06:11:31;21.10;;;10.50;;
12986;SDS011;58897;51.960;5.582;2023-01-23T06:13:58;16.23;;;9.60;;
12986;SDS011;58897;51.960;5.582;2023-01-23T06:16:24;14.70;;;7.93;;
12986;SDS011;58897;51.960;5.582;2023-01-23T06:18:51;17.00;;;9.13;;
12986;SDS011;58897;51.960;5.582;2023-01-23T06:21:17;15.27;;;8.63;;
12986;SDS011;58897;51.960;5.582;2023-01-23T06:23:44;14.97;;;8.63;;
12986;SDS011;58897;51.960;5.582;2023-01-23T06:26:12;15.70;;;9.30;;
12986;SDS011;58897;51.960;5.582;2023-01-23T06:28:39;13.97;;;7.80;;
12986;SDS011;58897;51.960;5.582;2023-01-23T06:31:06;16.17;;;8.53;;
12986;SDS011;58897;51.960;5.582;2023-01-23T06:33:35;15.90;;;8.93;;
12986;SDS011;58897;51.960;5.582;2023-01-23T06:36:04;19.37;;;9.50;;
12986;SDS011;58897;51.960;5.582;2023-01-23T06:38:31;14.80;;;8.83;;
12986;SDS011;58897;51.960;5.582;2023-01-23T06:40:58;17.13;;;9.97;;
12986;SDS011;58897;51.960;5.582;2023-01-23T06:43:25;16.47;;;9.97;;
12986;SDS011;58897;51.960;5.582;2023-01-23T06:45:52;17.07;;;9.33;;
12986;SDS011;58897;51.960;5.582;2023-01-23T06:48:18;16.87;;;9.37;;
12986;SDS011;58897;51.960;5.582;2023-01-23T06:50:45;14.60;;;8.03;;
12986;SDS011;58897;51.960;5.582;2023-01-23T06:53:13;17.97;;;9.03;;
12986;SDS011;58897;51.960;5.582;2023-01-23T06:55:41;17.13;;;9.47;;
12986;SDS011;58897;51.960;5.582;2023-01-23T06:58:08;18.27;;;9.70;;
12986;SDS011;58897;51.960;5.582;2023-01-23T07:00:34;13.63;;;8.10;;
12986;SDS011;58897;51.960;5.582;2023-01-23T07:03:01;15.13;;;8.53;;
12986;SDS011;58897;51.960;5.582;2023-01-23T07:05:31;14.33;;;8.17;;
12986;SDS011;58897;51.960;5.582;2023-01-23T07:08:01;17.63;;;8.63;;
12986;SDS011;58897;51.960;5.582;2023-01-23T07:10:30;18.17;;;10.00;;
12986;SDS011;58897;51.960;5.582;2023-01-23T07:12:57;17.30;;;10.07;;
12986;SDS011;58897;51.960;5.582;2023-01-23T07:15:23;17.37;;;9.83;;
12986;SDS011;58897;51.960;5.582;2023-01-23T07:17:50;14.03;;;8.10;;
12986;SDS011;58897;51.960;5.582;2023-01-23T07:20:16;16.77;;;8.33;;
12986;SDS011;58897;51.960;5.582;2023-01-23T07:22:43;14.93;;;7.87;;
12986;SDS011;58897;51.960;5.582;2023-01-23T07:25:10;19.93;;;8.93;;
12986;SDS011;58897;51.960;5.582;2023-01-23T07:27:36;16.77;;;8.63;;
12986;SDS011;58897;51.960;5.582;2023-01-23T07:30:03;18.70;;;9.43;;
12986;SDS011;58897;51.960;5.582;2023-01-23T07:32:31;18.07;;;9.33;;
12986;SDS011;58897;51.960;5.582;2023-01-23T07:34:57;16.40;;;9.00;;
12986;SDS011;58897;51.960;5.582;2023-01-23T07:37:23;17.80;;;9.63;;
12986;SDS011;58897;51.960;5.582;2023-01-23T07:39:50;20.40;;;10.03;;
12986;SDS011;58897;51.960;5.582;2023-01-23T07:42:17;17.77;;;9.00;;
12986;SDS011;58897;51.960;5.582;2023-01-23T07:44:43;18.03;;;9.40;;
12986;SDS011;58897;51.960;5.582;2023-01-23T07:47:10;17.60;;;9.30;;
12986;SDS011;58897;51.960;5.582;2023-01-23T07:49:36;19.63;;;9.77;;
12986;SDS011;58897;51.960;5.582;2023-01-23T07:52:03;18.33;;;10.57;;
12986;SDS011;58897;51.960;5.582;2023-01-23T07:54:30;16.43;;;9.60;;
12986;SDS011;58897;51.960;5.582;2023-01-23T07:56:56;24.60;;;11.40;;
12986;SDS011;58897;51.960;5.582;2023-01-23T07:59:23;18.07;;;10.57;;
12986;SDS011;58897;51.960;5.582;2023-01-23T08:01:49;19.07;;;9.80;;
12986;SDS011;58897;51.960;5.582;2023-01-23T08:04:18;17.27;;;9.70;;
12986;SDS011;58897;51.960;5.582;2023-01-23T08:06:45;20.03;;;9.50;;
12986;SDS011;58897;51.960;5.582;2023-01-23T08:09:11;16.70;;;9.10;;
12986;SDS011;58897;51.960;5.582;2023-01-23T08:11:38;17.47;;;9.80;;
12986;SDS011;58897;51.960;5.582;2023-01-23T08:14:04;20.33;;;10.20;;
12986;SDS011;58897;51.960;5.582;2023-01-23T08:16:31;18.00;;;9.03;;
12986;SDS011;58897;51.960;5.582;2023-01-23T08:18:57;16.90;;;9.10;;
12986;SDS011;58897;51.960;5.582;2023-01-23T08:21:24;19.30;;;10.77;;
12986;SDS011;58897;51.960;5.582;2023-01-23T08:23:50;19.77;;;10.67;;
12986;SDS011;58897;51.960;5.582;2023-01-23T08:26:17;20.57;;;9.60;;
12986;SDS011;58897;51.960;5.582;2023-01-23T08:28:44;18.03;;;9.70;;
12986;SDS011;58897;51.960;5.582;2023-01-23T08:31:11;18.43;;;10.07;;
12986;SDS011;58897;51.960;5.582;2023-01-23T08:33:38;18.50;;;9.60;;
12986;SDS011;58897;51.960;5.582;2023-01-23T08:36:05;19.83;;;9.77;;
12986;SDS011;58897;51.960;5.582;2023-01-23T08:38:36;20.63;;;10.70;;
12986;SDS011;58897;51.960;5.582;2023-01-23T08:41:03;16.00;;;9.53;;
12986;SDS011;58897;51.960;5.582;2023-01-23T08:43:30;23.87;;;11.90;;
12986;SDS011;58897;51.960;5.582;2023-01-23T08:45:57;18.00;;;10.13;;
12986;SDS011;58897;51.960;5.582;2023-01-23T08:48:25;20.17;;;10.27;;
12986;SDS011;58897;51.960;5.582;2023-01-23T08:50:57;19.37;;;9.97;;
12986;SDS011;58897;51.960;5.582;2023-01-23T08:53:26;22.00;;;11.57;;
12986;SDS011;58897;51.960;5.582;2023-01-23T08:55:53;20.77;;;11.17;;
12986;SDS011;58897;51.960;5.582;2023-01-23T08:58:23;18.67;;;9.57;;
12986;SDS011;58897;51.960;5.582;2023-01-23T09:00:50;19.80;;;9.73;;
12986;SDS011;58897;51.960;5.582;2023-01-23T09:03:17;17.60;;;9.67;;
12986;SDS011;58897;51.960;5.582;2023-01-23T09:05:43;16.67;;;9.53;;
12986;SDS011;58897;51.960;5.582;2023-01-23T09:08:10;20.33;;;9.77;;
12986;SDS011;58897;51.960;5.582;2023-01-23T09:10:36;17.47;;;10.53;;
12986;SDS011;58897;51.960;5.582;2023-01-23T09:13:03;19.20;;;9.73;;
12986;SDS011;58897;51.960;5.582;2023-01-23T09:15:30;20.23;;;10.50;;
12986;SDS011;58897;51.960;5.582;2023-01-23T09:17:57;16.60;;;9.77;;
12986;SDS011;58897;51.960;5.582;2023-01-23T09:20:23;20.83;;;11.33;;
12986;SDS011;58897;51.960;5.582;2023-01-23T09:22:54;19.47;;;9.23;;
12986;SDS011;58897;51.960;5.582;2023-01-23T09:25:20;17.70;;;10.13;;
12986;SDS011;58897;51.960;5.582;2023-01-23T09:27:47;18.77;;;9.70;;
12986;SDS011;58897;51.960;5.582;2023-01-23T09:30:14;19.53;;;10.80;;
12986;SDS011;58897;51.960;5.582;2023-01-23T09:32:40;18.47;;;10.33;;
12986;SDS011;58897;51.960;5.582;2023-01-23T09:35:07;18.60;;;9.47;;
12986;SDS011;58897;51.960;5.582;2023-01-23T09:37:34;18.37;;;10.23;;
12986;SDS011;58897;51.960;5.582;2023-01-23T09:40:56;15.50;;;9.17;;
12986;SDS011;58897;51.960;5.582;2023-01-23T09:51:13;17.03;;;9.93;;
12986;SDS011;58897;51.960;5.582;2023-01-23T09:53:47;16.07;;;9.40;;
12986;SDS011;58897;51.960;5.582;2023-01-23T09:56:27;15.67;;;9.03;;
12986;SDS011;58897;51.960;5.582;2023-01-23T09:59:07;18.30;;;9.87;;
12986;SDS011;58897;51.960;5.582;2023-01-23T10:01:39;18.67;;;9.20;;
12986;SDS011;58897;51.960;5.582;2023-01-23T10:04:08;18.00;;;9.70;;
12986;SDS011;58897;51.960;5.582;2023-01-23T10:06:44;15.67;;;9.40;;
12986;SDS011;58897;51.960;5.582;2023-01-23T10:12:19;18.40;;;9.23;;
12986;SDS011;58897;51.960;5.582;2023-01-23T10:20:16;12.73;;;8.00;;
12986;SDS011;58897;51.960;5.582;2023-01-23T10:23:02;14.17;;;9.07;;
12986;SDS011;58897;51.960;5.582;2023-01-23T10:25:42;15.67;;;8.20;;
12986;SDS011;58897;51.960;5.582;2023-01-23T10:28:16;16.90;;;8.90;;
12986;SDS011;58897;51.960;5.582;2023-01-23T10:31:06;16.53;;;9.63;;
12986;SDS011;58897;51.960;5.582;2023-01-23T10:33:38;15.77;;;8.53;;
12986;SDS011;58897;51.960;5.582;2023-01-23T10:36:38;17.47;;;8.97;;
12986;SDS011;58897;51.960;5.582;2023-01-23T10:39:26;17.03;;;7.87;;
12986;SDS011;58897;51.960;5.582;2023-01-23T10:42:00;17.23;;;9.10;;
12986;SDS011;58897;51.960;5.582;2023-01-23T10:44:28;17.43;;;8.57;;
12986;SDS011;58897;51.960;5.582;2023-01-23T10:46:56;15.13;;;8.63;;
12986;SDS011;58897;51.960;5.582;2023-01-23T10:51:56;20.43;;;9.90;;
12986;SDS011;58897;51.960;5.582;2023-01-23T10:54:23;14.97;;;9.10;;
12986;SDS011;58897;51.960;5.582;2023-01-23T10:57:00;16.47;;;9.23;;
12986;SDS011;58897;51.960;5.582;2023-01-23T10:59:52;17.27;;;9.00;;
12986;SDS011;58897;51.960;5.582;2023-01-23T11:02:26;21.83;;;11.27;;
12986;SDS011;58897;51.960;5.582;2023-01-23T11:04:54;22.03;;;9.70;;
12986;SDS011;58897;51.960;5.582;2023-01-23T11:07:28;17.80;;;9.20;;
12986;SDS011;58897;51.960;5.582;2023-01-23T11:10:39;19.90;;;9.83;;
12986;SDS011;58897;51.960;5.582;2023-01-23T11:12:48;19.03;;;9.37;;
12986;SDS011;58897;51.960;5.582;2023-01-23T11:17:48;17.97;;;9.50;;
12986;SDS011;58897;51.960;5.582;2023-01-23T11:20:22;19.33;;;9.07;;
12986;SDS011;58897;51.960;5.582;2023-01-23T11:25:37;15.93;;;8.80;;
12986;SDS011;58897;51.960;5.582;2023-01-23T11:31:05;18.63;;;10.23;;
12986;SDS011;58897;51.960;5.582;2023-01-23T11:38:46;16.80;;;9.63;;
12986;SDS011;58897;51.960;5.582;2023-01-23T11:41:18;18.80;;;10.50;;
12986;SDS011;58897;51.960;5.582;2023-01-23T11:43:53;16.50;;;8.90;;
12986;SDS011;58897;51.960;5.582;2023-01-23T11:46:29;17.93;;;9.67;;
12986;SDS011;58897;51.960;5.582;2023-01-23T11:49:29;14.67;;;9.20;;
12986;SDS011;58897;51.960;5.582;2023-01-23T11:55:21;17.70;;;9.90;;
12986;SDS011;58897;51.960;5.582;2023-01-23T12:00:50;16.07;;;9.23;;
12986;SDS011;58897;51.960;5.582;2023-01-23T12:17:03;16.53;;;9.13;;
12986;SDS011;58897;51.960;5.582;2023-01-23T12:20:16;20.10;;;9.20;;
12986;SDS011;58897;51.960;5.582;2023-01-23T12:34:00;15.37;;;9.37;;
12986;SDS011;58897;51.960;5.582;2023-01-23T12:36:44;13.43;;;8.10;;
12986;SDS011;58897;51.960;5.582;2023-01-23T12:42:37;13.83;;;8.47;;
12986;SDS011;58897;51.960;5.582;2023-01-23T12:53:19;12.27;;;7.70;;
12986;SDS011;58897;51.960;5.582;2023-01-23T12:58:20;14.97;;;7.83;;
12986;SDS011;58897;51.960;5.582;2023-01-23T13:03:53;14.17;;;7.57;;
12986;SDS011;58897;51.960;5.582;2023-01-23T13:06:40;14.77;;;8.77;;
12986;SDS011;58897;51.960;5.582;2023-01-23T13:14:48;12.60;;;8.03;;
12986;SDS011;58897;51.960;5.582;2023-01-23T13:17:40;14.27;;;7.83;;
12986;SDS011;58897;51.960;5.582;2023-01-23T13:28:45;12.47;;;6.70;;
12986;SDS011;58897;51.960;5.582;2023-01-23T13:34:02;13.20;;;7.50;;
12986;SDS011;58897;51.960;5.582;2023-01-23T13:36:51;12.60;;;7.50;;
12986;SDS011;58897;51.960;5.582;2023-01-23T13:39:36;13.67;;;7.73;;
12986;SDS011;58897;51.960;5.582;2023-01-23T13:51:26;13.03;;;7.23;;
12986;SDS011;58897;51.960;5.582;2023-01-23T13:54:13;12.73;;;7.63;;
12986;SDS011;58897;51.960;5.582;2023-01-23T13:57:15;14.97;;;8.20;;
12986;SDS011;58897;51.960;5.582;2023-01-23T13:59:57;11.67;;;7.27;;
12986;SDS011;58897;51.960;5.582;2023-01-23T14:02:38;11.87;;;6.37;;
12986;SDS011;58897;51.960;5.582;2023-01-23T14:05:40;16.00;;;7.57;;
12986;SDS011;58897;51.960;5.582;2023-01-23T14:08:22;11.27;;;7.17;;
12986;SDS011;58897;51.960;5.582;2023-01-23T14:11:09;13.20;;;7.60;;
12986;SDS011;58897;51.960;5.582;2023-01-23T14:13:53;12.60;;;7.17;;
12986;SDS011;58897;51.960;5.582;2023-01-23T14:16:52;11.57;;;7.27;;
12986;SDS011;58897;51.960;5.582;2023-01-23T14:19:33;14.97;;;7.33;;
12986;SDS011;58897;51.960;5.582;2023-01-23T14:22:17;14.00;;;7.43;;
12986;SDS011;58897;51.960;5.582;2023-01-23T14:24:48;13.93;;;7.83;;
12986;SDS011;58897;51.960;5.582;2023-01-23T14:27:28;14.13;;;8.17;;
12986;SDS011;58897;51.960;5.582;2023-01-23T14:30:00;13.37;;;8.00;;
12986;SDS011;58897;51.960;5.582;2023-01-23T14:32:40;12.13;;;7.10;;
12986;SDS011;58897;51.960;5.582;2023-01-23T14:37:43;12.17;;;7.33;;
12986;SDS011;58897;51.960;5.582;2023-01-23T14:40:17;13.97;;;7.20;;
12986;SDS011;58897;51.960;5.582;2023-01-23T14:43:05;11.50;;;7.13;;
12986;SDS011;58897;51.960;5.582;2023-01-23T14:45:33;11.73;;;6.83;;
12986;SDS011;58897;51.960;5.582;2023-01-23T14:48:03;11.77;;;7.20;;
12986;SDS011;58897;51.960;5.582;2023-01-23T14:50:33;14.97;;;7.47;;
12986;SDS011;58897;51.960;5.582;2023-01-23T14:53:00;12.20;;;7.10;;
12986;SDS011;58897;51.960;5.582;2023-01-23T14:55:28;14.27;;;8.17;;
12986;SDS011;58897;51.960;5.582;2023-01-23T14:57:56;13.27;;;7.67;;
12986;SDS011;58897;51.960;5.582;2023-01-23T15:00:25;12.43;;;6.90;;
12986;SDS011;58897;51.960;5.582;2023-01-23T15:02:53;14.33;;;7.57;;
12986;SDS011;58897;51.960;5.582;2023-01-23T15:05:25;13.37;;;7.27;;
12986;SDS011;58897;51.960;5.582;2023-01-23T15:08:00;13.00;;;7.90;;
12986;SDS011;58897;51.960;5.582;2023-01-23T15:10:33;14.33;;;7.67;;
12986;SDS011;58897;51.960;5.582;2023-01-23T15:13:12;12.27;;;7.20;;
12986;SDS011;58897;51.960;5.582;2023-01-23T15:15:54;14.07;;;7.17;;
12986;SDS011;58897;51.960;5.582;2023-01-23T15:18:25;13.13;;;7.70;;
12986;SDS011;58897;51.960;5.582;2023-01-23T15:20:53;13.53;;;7.00;;
12986;SDS011;58897;51.960;5.582;2023-01-23T15:23:31;14.30;;;8.80;;
12986;SDS011;58897;51.960;5.582;2023-01-23T15:26:08;13.73;;;7.83;;
12986;SDS011;58897;51.960;5.582;2023-01-23T15:28:38;17.53;;;9.33;;
12986;SDS011;58897;51.960;5.582;2023-01-23T15:31:24;12.07;;;7.50;;
12986;SDS011;58897;51.960;5.582;2023-01-23T15:33:54;12.27;;;7.17;;
12986;SDS011;58897;51.960;5.582;2023-01-23T15:36:27;12.80;;;7.47;;
12986;SDS011;58897;51.960;5.582;2023-01-23T15:38:56;11.97;;;7.00;;
12986;SDS011;58897;51.960;5.582;2023-01-23T15:41:37;13.63;;;7.70;;
12986;SDS011;58897;51.960;5.582;2023-01-23T15:44:12;13.57;;;7.00;;
12986;SDS011;58897;51.960;5.582;2023-01-23T15:46:40;12.23;;;7.20;;
12986;SDS011;58897;51.960;5.582;2023-01-23T15:49:07;11.57;;;6.97;;
12986;SDS011;58897;51.960;5.582;2023-01-23T15:51:50;12.50;;;8.23;;
12986;SDS011;58897;51.960;5.582;2023-01-23T15:54:21;14.53;;;7.17;;
12986;SDS011;58897;51.960;5.582;2023-01-23T15:56:51;11.47;;;7.63;;
12986;SDS011;58897;51.960;5.582;2023-01-23T15:59:32;12.23;;;7.60;;
12986;SDS011;58897;51.960;5.582;2023-01-23T16:01:59;12.63;;;7.53;;
12986;SDS011;58897;51.960;5.582;2023-01-23T16:04:26;13.43;;;7.70;;
12986;SDS011;58897;51.960;5.582;2023-01-23T16:06:52;13.13;;;8.03;;
12986;SDS011;58897;51.960;5.582;2023-01-23T16:09:25;13.17;;;7.70;;
12986;SDS011;58897;51.960;5.582;2023-01-23T16:11:56;16.00;;;8.07;;
12986;SDS011;58897;51.960;5.582;2023-01-23T16:14:24;12.33;;;7.30;;
12986;SDS011;58897;51.960;5.582;2023-01-23T16:16:51;12.97;;;7.27;;
12986;SDS011;58897;51.960;5.582;2023-01-23T16:19:18;12.27;;;7.50;;
12986;SDS011;58897;51.960;5.582;2023-01-23T16:21:45;17.50;;;8.37;;
12986;SDS011;58897;51.960;5.582;2023-01-23T16:24:24;14.23;;;8.10;;
12986;SDS011;58897;51.960;5.582;2023-01-23T16:26:52;13.03;;;7.17;;
12986;SDS011;58897;51.960;5.582;2023-01-23T16:29:25;14.67;;;7.93;;
12986;SDS011;58897;51.960;5.582;2023-01-23T16:31:54;13.23;;;7.50;;
12986;SDS011;58897;51.960;5.582;2023-01-23T16:34:21;13.43;;;8.23;;
12986;SDS011;58897;51.960;5.582;2023-01-23T16:36:48;14.70;;;7.73;;
12986;SDS011;58897;51.960;5.582;2023-01-23T16:39:18;10.77;;;7.23;;
12986;SDS011;58897;51.960;5.582;2023-01-23T16:41:47;12.40;;;7.40;;
12986;SDS011;58897;51.960;5.582;2023-01-23T16:44:15;12.77;;;7.73;;
12986;SDS011;58897;51.960;5.582;2023-01-23T16:46:47;15.63;;;8.30;;
12986;SDS011;58897;51.960;5.582;2023-01-23T16:49:14;12.70;;;7.13;;
12986;SDS011;58897;51.960;5.582;2023-01-23T16:52:05;13.63;;;7.87;;